sensor_id;sensor_type;location;lat;lon;timestamp;pressure;altitude;pressure_sealevel;temperature;humidity
77147;BME280;66121;52.584;9.694;2023-04-03T00:00:52;102850.06;;;0.12;77.48
77147;BME280;66121;52.584;9.694;2023-04-03T00:03:18;102845.63;;;0.01;78.53
77147;BME280;66121;52.584;9.694;2023-04-03T00:05:44;102845.53;;;-0.09;79.30
77147;BME280;66121;52.584;9.694;2023-04-03T00:08:10;102849.94;;;-0.03;78.69
77147;BME280;66121;52.584;9.694;2023-04-03T00:10:36;102857.47;;;-0.15;78.91
77147;BME280;66121;52.584;9.694;2023-04-03T00:13:03;102858.78;;;-0.18;79.26
77147;BME280;66121;52.584;9.694;2023-04-03T00:15:28;102856.72;;;-0.32;79.48
77147;BME280;66121;52.584;9.694;2023-04-03T00:17:54;102855.66;;;-0.31;79.96
77147;BME280;66121;52.584;9.694;2023-04-03T00:20:19;102866.78;;;-0.33;79.30
77147;BME280;66121;52.584;9.694;2023-04-03T00:22:45;102873.00;;;-0.32;79.91
77147;BME280;66121;52.584;9.694;2023-04-03T00:25:10;102864.88;;;-0.32;80.19
77147;BME280;66121;52.584;9.694;2023-04-03T00:27:37;102870.25;;;-0.37;79.80
77147;BME280;66121;52.584;9.694;2023-04-03T00:30:03;102864.31;;;-0.34;79.41
77147;BME280;66121;52.584;9.694;2023-04-03T00:32:28;102869.72;;;-0.34;79.52
77147;BME280;66121;52.584;9.694;2023-04-03T00:34:54;102864.03;;;-0.38;78.84
77147;BME280;66121;52.584;9.694;2023-04-03T00:37:19;102875.38;;;-0.41;79.62
77147;BME280;66121;52.584;9.694;2023-04-03T00:39:44;102880.25;;;-0.43;78.84
77147;BME280;66121;52.584;9.694;2023-04-03T00:42:10;102881.75;;;-0.52;80.36
77147;BME280;66121;52.584;9.694;2023-04-03T00:47:03;102883.72;;;-0.47;79.85
77147;BME280;66121;52.584;9.694;2023-04-03T00:49:31;102886.63;;;-0.54;80.66
77147;BME280;66121;52.584;9.694;2023-04-03T00:51:56;102878.50;;;-0.54;79.41
77147;BME280;66121;52.584;9.694;2023-04-03T00:54:22;102883.81;;;-0.64;81.21
77147;BME280;66121;52.584;9.694;2023-04-03T00:56:50;102887.06;;;-0.62;81.31
77147;BME280;66121;52.584;9.694;2023-04-03T00:59:20;102897.28;;;-0.47;79.78
77147;BME280;66121;52.584;9.694;2023-04-03T01:01:48;102889.28;;;-0.59;79.63
77147;BME280;66121;52.584;9.694;2023-04-03T01:04:48;102896.59;;;-0.59;79.90
77147;BME280;66121;52.584;9.694;2023-04-03T01:07:16;102887.84;;;-0.67;81.03
77147;BME280;66121;52.584;9.694;2023-04-03T01:09:43;102891.09;;;-0.65;80.58
77147;BME280;66121;52.584;9.694;2023-04-03T01:12:18;102891.38;;;-0.66;81.13
77147;BME280;66121;52.584;9.694;2023-04-03T01:14:45;102892.91;;;-0.75;80.63
77147;BME280;66121;52.584;9.694;2023-04-03T01:25:50;102896.75;;;-0.93;81.66
77147;BME280;66121;52.584;9.694;2023-04-03T01:28:22;102890.88;;;-1.06;81.57
77147;BME280;66121;52.584;9.694;2023-04-03T01:33:32;102890.75;;;-1.16;82.39
77147;BME280;66121;52.584;9.694;2023-04-03T01:35:57;102889.34;;;-1.19;82.46
77147;BME280;66121;52.584;9.694;2023-04-03T01:38:23;102894.09;;;-1.09;81.93
77147;BME280;66121;52.584;9.694;2023-04-03T01:40:48;102892.53;;;-1.05;81.69
77147;BME280;66121;52.584;9.694;2023-04-03T01:43:14;102886.16;;;-1.16;82.73
77147;BME280;66121;52.584;9.694;2023-04-03T01:45:39;102897.25;;;-1.17;82.55
77147;BME280;66121;52.584;9.694;2023-04-03T01:48:05;102900.66;;;-1.05;81.48
77147;BME280;66121;52.584;9.694;2023-04-03T01:50:30;102897.56;;;-1.14;83.81
77147;BME280;66121;52.584;9.694;2023-04-03T01:52:56;102902.66;;;-1.17;82.50
77147;BME280;66121;52.584;9.694;2023-04-03T01:55:21;102892.56;;;-1.22;82.83
77147;BME280;66121;52.584;9.694;2023-04-03T01:57:46;102897.81;;;-1.15;82.37
77147;BME280;66121;52.584;9.694;2023-04-03T02:00:12;102902.84;;;-1.24;82.73
77147;BME280;66121;52.584;9.694;2023-04-03T02:02:37;102910.06;;;-1.30;82.27
77147;BME280;66121;52.584;9.694;2023-04-03T02:05:03;102914.91;;;-1.32;82.59
77147;BME280;66121;52.584;9.694;2023-04-03T02:07:28;102909.00;;;-1.28;82.03
77147;BME280;66121;52.584;9.694;2023-04-03T02:09:53;102916.50;;;-1.36;82.88
77147;BME280;66121;52.584;9.694;2023-04-03T02:12:19;102917.31;;;-1.35;82.12
77147;BME280;66121;52.584;9.694;2023-04-03T02:14:44;102911.25;;;-1.42;82.84
77147;BME280;66121;52.584;9.694;2023-04-03T02:17:10;102911.84;;;-1.57;82.86
77147;BME280;66121;52.584;9.694;2023-04-03T02:19:35;102911.19;;;-1.47;82.81
77147;BME280;66121;52.584;9.694;2023-04-03T02:22:04;102916.91;;;-1.44;82.58
77147;BME280;66121;52.584;9.694;2023-04-03T02:24:30;102917.91;;;-1.50;82.17
77147;BME280;66121;52.584;9.694;2023-04-03T02:26:55;102909.72;;;-1.55;82.71
77147;BME280;66121;52.584;9.694;2023-04-03T02:29:20;102913.22;;;-1.54;84.16
77147;BME280;66121;52.584;9.694;2023-04-03T02:31:46;102918.06;;;-1.56;82.28
77147;BME280;66121;52.584;9.694;2023-04-03T02:34:11;102931.13;;;-1.53;83.75
77147;BME280;66121;52.584;9.694;2023-04-03T02:36:36;102919.06;;;-1.62;83.91
77147;BME280;66121;52.584;9.694;2023-04-03T02:39:02;102914.22;;;-1.60;82.19
77147;BME280;66121;52.584;9.694;2023-04-03T02:41:28;102917.09;;;-1.67;82.92
77147;BME280;66121;52.584;9.694;2023-04-03T02:44:00;102927.19;;;-1.62;83.13
77147;BME280;66121;52.584;9.694;2023-04-03T02:46:25;102924.63;;;-1.69;83.94
77147;BME280;66121;52.584;9.694;2023-04-03T02:48:50;102921.94;;;-1.69;83.81
77147;BME280;66121;52.584;9.694;2023-04-03T02:51:16;102916.03;;;-1.66;85.06
77147;BME280;66121;52.584;9.694;2023-04-03T02:53:41;102928.84;;;-1.78;83.83
77147;BME280;66121;52.584;9.694;2023-04-03T02:56:06;102926.78;;;-1.87;84.65
77147;BME280;66121;52.584;9.694;2023-04-03T02:58:31;102915.63;;;-1.91;85.55
77147;BME280;66121;52.584;9.694;2023-04-03T03:00:57;102916.94;;;-1.93;86.62
77147;BME280;66121;52.584;9.694;2023-04-03T03:03:22;102924.56;;;-1.90;86.08
77147;BME280;66121;52.584;9.694;2023-04-03T03:05:48;102906.09;;;-1.93;84.72
77147;BME280;66121;52.584;9.694;2023-04-03T03:08:13;102923.00;;;-1.86;84.64
77147;BME280;66121;52.584;9.694;2023-04-03T03:10:38;102921.28;;;-1.92;84.47
77147;BME280;66121;52.584;9.694;2023-04-03T03:13:04;102920.38;;;-1.81;84.80
77147;BME280;66121;52.584;9.694;2023-04-03T03:15:29;102926.53;;;-1.86;83.57
77147;BME280;66121;52.584;9.694;2023-04-03T03:17:55;102930.22;;;-1.92;85.83
77147;BME280;66121;52.584;9.694;2023-04-03T03:20:20;102930.38;;;-1.99;84.76
77147;BME280;66121;52.584;9.694;2023-04-03T03:22:46;102928.75;;;-2.00;85.83
77147;BME280;66121;52.584;9.694;2023-04-03T03:25:11;102930.16;;;-1.97;86.52
77147;BME280;66121;52.584;9.694;2023-04-03T03:27:36;102928.16;;;-2.02;86.31
77147;BME280;66121;52.584;9.694;2023-04-03T03:30:02;102924.69;;;-2.14;86.04
77147;BME280;66121;52.584;9.694;2023-04-03T03:32:27;102932.25;;;-1.99;86.21
77147;BME280;66121;52.584;9.694;2023-04-03T03:34:53;102932.16;;;-2.04;86.44
77147;BME280;66121;52.584;9.694;2023-04-03T03:37:18;102936.13;;;-1.95;85.49
77147;BME280;66121;52.584;9.694;2023-04-03T03:39:43;102931.94;;;-2.03;86.96
77147;BME280;66121;52.584;9.694;2023-04-03T03:42:08;102930.16;;;-1.97;85.91
77147;BME280;66121;52.584;9.694;2023-04-03T03:44:34;102930.28;;;-2.04;86.06
77147;BME280;66121;52.584;9.694;2023-04-03T03:46:59;102928.06;;;-2.07;85.46
77147;BME280;66121;52.584;9.694;2023-04-03T03:49:24;102919.84;;;-2.12;85.59
77147;BME280;66121;52.584;9.694;2023-04-03T03:51:50;102929.97;;;-2.07;84.75
77147;BME280;66121;52.584;9.694;2023-04-03T03:54:16;102922.47;;;-2.17;85.76
77147;BME280;66121;52.584;9.694;2023-04-03T03:56:41;102928.38;;;-2.20;85.96
77147;BME280;66121;52.584;9.694;2023-04-03T03:59:06;102917.78;;;-2.21;86.94
77147;BME280;66121;52.584;9.694;2023-04-03T04:01:32;102932.31;;;-2.11;86.21
77147;BME280;66121;52.584;9.694;2023-04-03T04:03:57;102927.16;;;-2.12;86.57
77147;BME280;66121;52.584;9.694;2023-04-03T04:06:23;102931.97;;;-2.14;86.22
77147;BME280;66121;52.584;9.694;2023-04-03T04:08:48;102930.59;;;-2.17;87.54
77147;BME280;66121;52.584;9.694;2023-04-03T04:11:13;102933.53;;;-2.18;85.90
77147;BME280;66121;52.584;9.694;2023-04-03T04:13:39;102940.81;;;-2.19;86.39
77147;BME280;66121;52.584;9.694;2023-04-03T04:16:06;102940.78;;;-2.07;86.78
77147;BME280;66121;52.584;9.694;2023-04-03T04:18:31;102927.00;;;-2.22;86.90
77147;BME280;66121;52.584;9.694;2023-04-03T04:20:56;102941.16;;;-2.15;86.03
77147;BME280;66121;52.584;9.694;2023-04-03T04:23:22;102942.00;;;-1.98;87.14
77147;BME280;66121;52.584;9.694;2023-04-03T04:25:48;102945.19;;;-2.01;87.04
77147;BME280;66121;52.584;9.694;2023-04-03T04:28:14;102944.69;;;-2.15;85.48
77147;BME280;66121;52.584;9.694;2023-04-03T04:30:40;102955.53;;;-2.15;86.26
77147;BME280;66121;52.584;9.694;2023-04-03T04:33:05;102956.22;;;-2.19;86.12
77147;BME280;66121;52.584;9.694;2023-04-03T04:35:32;102945.81;;;-2.27;86.59
77147;BME280;66121;52.584;9.694;2023-04-03T04:37:57;102956.03;;;-2.29;87.12
77147;BME280;66121;52.584;9.694;2023-04-03T04:40:22;102959.09;;;-2.26;85.05
77147;BME280;66121;52.584;9.694;2023-04-03T04:42:47;102964.75;;;-2.27;86.72
77147;BME280;66121;52.584;9.694;2023-04-03T04:45:13;102963.91;;;-2.28;86.38
77147;BME280;66121;52.584;9.694;2023-04-03T04:47:40;102961.94;;;-2.32;85.00
77147;BME280;66121;52.584;9.694;2023-04-03T04:50:05;102963.34;;;-2.30;85.20
77147;BME280;66121;52.584;9.694;2023-04-03T04:52:31;102965.44;;;-2.32;86.03
77147;BME280;66121;52.584;9.694;2023-04-03T04:54:56;102966.44;;;-2.38;85.81
77147;BME280;66121;52.584;9.694;2023-04-03T04:57:22;102975.75;;;-2.45;85.97
77147;BME280;66121;52.584;9.694;2023-04-03T04:59:47;102973.13;;;-2.40;86.17
77147;BME280;66121;52.584;9.694;2023-04-03T05:02:12;102972.09;;;-2.51;87.07
77147;BME280;66121;52.584;9.694;2023-04-03T05:04:38;102979.38;;;-2.51;88.04
77147;BME280;66121;52.584;9.694;2023-04-03T05:07:03;102972.59;;;-2.54;87.25
77147;BME280;66121;52.584;9.694;2023-04-03T05:09:28;102974.34;;;-2.48;87.85
77147;BME280;66121;52.584;9.694;2023-04-03T05:11:54;102972.09;;;-2.51;87.85
77147;BME280;66121;52.584;9.694;2023-04-03T05:14:19;102969.28;;;-2.44;86.77
77147;BME280;66121;52.584;9.694;2023-04-03T05:16:44;102960.88;;;-2.59;86.64
77147;BME280;66121;52.584;9.694;2023-04-03T05:19:10;102982.81;;;-2.44;85.99
77147;BME280;66121;52.584;9.694;2023-04-03T05:21:36;102983.13;;;-2.41;87.29
77147;BME280;66121;52.584;9.694;2023-04-03T05:24:01;102976.66;;;-2.40;88.06
77147;BME280;66121;52.584;9.694;2023-04-03T05:26:29;102972.88;;;-2.39;87.74
77147;BME280;66121;52.584;9.694;2023-04-03T05:28:55;102980.63;;;-2.31;87.69
77147;BME280;66121;52.584;9.694;2023-04-03T05:31:20;102985.50;;;-2.16;87.08
77147;BME280;66121;52.584;9.694;2023-04-03T05:33:45;102982.84;;;-2.00;86.63
77147;BME280;66121;52.584;9.694;2023-04-03T05:36:11;102990.81;;;-1.93;87.46
77147;BME280;66121;52.584;9.694;2023-04-03T05:38:37;102997.69;;;-1.85;87.65
77147;BME280;66121;52.584;9.694;2023-04-03T05:41:03;102995.09;;;-1.80;86.91
77147;BME280;66121;52.584;9.694;2023-04-03T05:43:28;103002.47;;;-1.76;86.43
77147;BME280;66121;52.584;9.694;2023-04-03T05:45:54;103002.06;;;-1.68;86.86
77147;BME280;66121;52.584;9.694;2023-04-03T05:48:19;103017.56;;;-1.80;87.83
77147;BME280;66121;52.584;9.694;2023-04-03T05:50:46;103016.50;;;-1.62;87.79
77147;BME280;66121;52.584;9.694;2023-04-03T05:53:16;103017.81;;;-1.65;88.26
77147;BME280;66121;52.584;9.694;2023-04-03T05:55:43;103014.69;;;-1.57;87.62
77147;BME280;66121;52.584;9.694;2023-04-03T05:58:08;103024.06;;;-1.48;87.81
77147;BME280;66121;52.584;9.694;2023-04-03T06:00:33;103028.16;;;-1.45;88.06
77147;BME280;66121;52.584;9.694;2023-04-03T06:02:59;103029.56;;;-1.26;86.84
77147;BME280;66121;52.584;9.694;2023-04-03T06:05:24;103035.41;;;-1.17;86.74
77147;BME280;66121;52.584;9.694;2023-04-03T06:07:50;103034.47;;;-1.06;87.07
77147;BME280;66121;52.584;9.694;2023-04-03T06:10:15;103040.16;;;-1.08;87.73
77147;BME280;66121;52.584;9.694;2023-04-03T06:12:40;103044.78;;;-0.87;86.67
77147;BME280;66121;52.584;9.694;2023-04-03T06:15:07;103034.00;;;-0.82;86.52
77147;BME280;66121;52.584;9.694;2023-04-03T06:17:35;103033.66;;;-0.69;86.28
77147;BME280;66121;52.584;9.694;2023-04-03T06:20:00;103048.75;;;-0.56;86.35
77147;BME280;66121;52.584;9.694;2023-04-03T06:22:25;103035.06;;;-0.44;84.74
77147;BME280;66121;52.584;9.694;2023-04-03T06:24:51;103041.88;;;-0.42;85.44
77147;BME280;66121;52.584;9.694;2023-04-03T06:27:16;103046.09;;;-0.29;85.04
77147;BME280;66121;52.584;9.694;2023-04-03T06:29:42;103047.38;;;-0.15;84.37
77147;BME280;66121;52.584;9.694;2023-04-03T06:32:08;103038.53;;;-0.06;84.65
77147;BME280;66121;52.584;9.694;2023-04-03T06:34:33;103041.09;;;0.06;83.37
77147;BME280;66121;52.584;9.694;2023-04-03T06:36:58;103049.53;;;0.10;83.66
77147;BME280;66121;52.584;9.694;2023-04-03T06:39:24;103040.50;;;0.31;83.10
77147;BME280;66121;52.584;9.694;2023-04-03T06:41:50;103047.97;;;0.45;82.30
77147;BME280;66121;52.584;9.694;2023-04-03T06:44:16;103042.13;;;0.58;81.51
77147;BME280;66121;52.584;9.694;2023-04-03T06:46:42;103037.94;;;0.78;81.55
77147;BME280;66121;52.584;9.694;2023-04-03T06:49:08;103045.09;;;0.89;80.91
77147;BME280;66121;52.584;9.694;2023-04-03T06:51:35;103054.13;;;0.94;78.46
77147;BME280;66121;52.584;9.694;2023-04-03T06:54:01;103053.53;;;1.29;79.78
77147;BME280;66121;52.584;9.694;2023-04-03T06:56:27;103058.53;;;1.52;77.27
77147;BME280;66121;52.584;9.694;2023-04-03T06:58:54;103049.13;;;1.80;75.28
77147;BME280;66121;52.584;9.694;2023-04-03T07:01:24;103061.25;;;2.14;74.67
77147;BME280;66121;52.584;9.694;2023-04-03T07:03:50;103074.63;;;2.36;74.44
77147;BME280;66121;52.584;9.694;2023-04-03T07:06:16;103075.50;;;2.72;72.89
77147;BME280;66121;52.584;9.694;2023-04-03T07:08:42;103070.31;;;2.95;72.15
77147;BME280;66121;52.584;9.694;2023-04-03T07:11:08;103082.03;;;3.11;69.66
77147;BME280;66121;52.584;9.694;2023-04-03T07:13:34;103073.81;;;3.21;69.31
77147;BME280;66121;52.584;9.694;2023-04-03T07:15:59;103083.88;;;3.46;69.15
77147;BME280;66121;52.584;9.694;2023-04-03T07:18:25;103081.69;;;3.43;68.40
77147;BME280;66121;52.584;9.694;2023-04-03T07:20:51;103081.34;;;3.64;67.83
77147;BME280;66121;52.584;9.694;2023-04-03T07:23:17;103085.72;;;3.65;66.15
77147;BME280;66121;52.584;9.694;2023-04-03T07:25:43;103091.06;;;3.96;66.60
77147;BME280;66121;52.584;9.694;2023-04-03T07:28:09;103098.13;;;4.02;66.05
77147;BME280;66121;52.584;9.694;2023-04-03T07:30:34;103091.06;;;4.44;65.87
77147;BME280;66121;52.584;9.694;2023-04-03T07:33:00;103089.84;;;4.17;63.60
77147;BME280;66121;52.584;9.694;2023-04-03T07:35:25;103079.69;;;4.27;62.99
77147;BME280;66121;52.584;9.694;2023-04-03T07:37:51;103092.66;;;4.02;63.34
77147;BME280;66121;52.584;9.694;2023-04-03T07:40:16;103089.81;;;4.27;63.91
77147;BME280;66121;52.584;9.694;2023-04-03T07:42:42;103093.19;;;4.09;64.09
77147;BME280;66121;52.584;9.694;2023-04-03T07:45:07;103089.56;;;4.23;61.86
77147;BME280;66121;52.584;9.694;2023-04-03T07:47:33;103096.66;;;4.68;62.09
77147;BME280;66121;52.584;9.694;2023-04-03T07:49:58;103093.03;;;4.78;63.03
77147;BME280;66121;52.584;9.694;2023-04-03T07:52:24;103098.09;;;4.61;62.50
77147;BME280;66121;52.584;9.694;2023-04-03T07:54:50;103088.88;;;4.85;62.58
77147;BME280;66121;52.584;9.694;2023-04-03T07:57:15;103096.22;;;4.90;61.25
77147;BME280;66121;52.584;9.694;2023-04-03T07:59:41;103098.00;;;5.04;62.93
77147;BME280;66121;52.584;9.694;2023-04-03T08:02:11;103092.72;;;5.42;60.75
77147;BME280;66121;52.584;9.694;2023-04-03T08:04:36;103099.56;;;5.68;60.59
77147;BME280;66121;52.584;9.694;2023-04-03T08:07:02;103086.66;;;5.68;61.55
77147;BME280;66121;52.584;9.694;2023-04-03T08:09:27;103090.34;;;5.59;59.47
77147;BME280;66121;52.584;9.694;2023-04-03T08:11:52;103091.13;;;5.88;59.91
77147;BME280;66121;52.584;9.694;2023-04-03T08:14:19;103099.91;;;6.09;60.11
77147;BME280;66121;52.584;9.694;2023-04-03T08:16:46;103096.13;;;6.05;57.60
77147;BME280;66121;52.584;9.694;2023-04-03T08:19:12;103081.53;;;5.62;59.41
77147;BME280;66121;52.584;9.694;2023-04-03T08:21:40;103090.34;;;6.06;57.21
77147;BME280;66121;52.584;9.694;2023-04-03T08:24:07;103093.97;;;6.02;60.06
77147;BME280;66121;52.584;9.694;2023-04-03T08:26:32;103095.94;;;6.57;58.03
77147;BME280;66121;52.584;9.694;2023-04-03T08:28:57;103093.38;;;6.61;56.61
77147;BME280;66121;52.584;9.694;2023-04-03T08:31:22;103087.31;;;6.64;58.07
77147;BME280;66121;52.584;9.694;2023-04-03T08:33:48;103084.50;;;6.69;55.99
77147;BME280;66121;52.584;9.694;2023-04-03T08:36:22;103089.66;;;6.89;55.80
77147;BME280;66121;52.584;9.694;2023-04-03T08:38:48;103080.53;;;6.93;57.42
77147;BME280;66121;52.584;9.694;2023-04-03T08:41:35;103080.25;;;7.08;53.17
77147;BME280;66121;52.584;9.694;2023-04-03T08:44:26;103088.00;;;7.79;55.54
77147;BME280;66121;52.584;9.694;2023-04-03T08:50:06;103068.91;;;8.37;51.78
77147;BME280;66121;52.584;9.694;2023-04-03T08:52:36;103083.56;;;8.33;48.83
77147;BME280;66121;52.584;9.694;2023-04-03T08:58:21;103080.84;;;7.78;48.36
77147;BME280;66121;52.584;9.694;2023-04-03T09:00:50;103072.97;;;8.13;49.45
77147;BME280;66121;52.584;9.694;2023-04-03T09:03:19;103073.22;;;8.96;50.43
77147;BME280;66121;52.584;9.694;2023-04-03T09:05:50;103064.59;;;8.89;47.70
77147;BME280;66121;52.584;9.694;2023-04-03T09:08:32;103066.41;;;8.72;46.88
77147;BME280;66121;52.584;9.694;2023-04-03T09:11:06;103065.09;;;8.47;49.26
77147;BME280;66121;52.584;9.694;2023-04-03T09:16:55;103077.25;;;7.24;49.81
77147;BME280;66121;52.584;9.694;2023-04-03T09:22:00;103072.00;;;6.25;50.46
77147;BME280;66121;52.584;9.694;2023-04-03T09:24:28;103061.97;;;6.16;52.00
77147;BME280;66121;52.584;9.694;2023-04-03T09:26:56;103070.50;;;6.52;52.23
77147;BME280;66121;52.584;9.694;2023-04-03T09:29:25;103062.19;;;6.01;49.62
77147;BME280;66121;52.584;9.694;2023-04-03T09:31:58;103065.38;;;5.84;49.14
77147;BME280;66121;52.584;9.694;2023-04-03T09:34:37;103066.63;;;6.71;48.72
77147;BME280;66121;52.584;9.694;2023-04-03T09:37:05;103056.13;;;6.60;48.88
77147;BME280;66121;52.584;9.694;2023-04-03T09:39:53;103062.06;;;6.29;50.43
77147;BME280;66121;52.584;9.694;2023-04-03T09:42:22;103060.63;;;5.95;48.21
77147;BME280;66121;52.584;9.694;2023-04-03T09:45:02;103050.50;;;5.95;48.17
77147;BME280;66121;52.584;9.694;2023-04-03T09:47:32;103054.56;;;6.54;49.12
77147;BME280;66121;52.584;9.694;2023-04-03T09:52:44;103052.34;;;6.18;49.68
77147;BME280;66121;52.584;9.694;2023-04-03T09:55:22;103054.38;;;7.28;48.04
77147;BME280;66121;52.584;9.694;2023-04-03T09:57:56;103047.47;;;7.58;46.46
77147;BME280;66121;52.584;9.694;2023-04-03T10:00:25;103049.59;;;7.34;46.97
77147;BME280;66121;52.584;9.694;2023-04-03T10:02:54;103044.19;;;7.29;44.31
77147;BME280;66121;52.584;9.694;2023-04-03T10:10:45;103034.56;;;7.58;46.53
77147;BME280;66121;52.584;9.694;2023-04-03T10:13:17;103039.44;;;8.24;44.48
77147;BME280;66121;52.584;9.694;2023-04-03T10:18:31;103030.94;;;7.99;42.88
77147;BME280;66121;52.584;9.694;2023-04-03T10:21:17;103028.94;;;8.40;41.90
77147;BME280;66121;52.584;9.694;2023-04-03T10:23:51;103028.84;;;8.18;43.98
77147;BME280;66121;52.584;9.694;2023-04-03T10:29:20;103024.97;;;7.83;46.80
77147;BME280;66121;52.584;9.694;2023-04-03T10:34:43;103007.81;;;8.49;41.11
77147;BME280;66121;52.584;9.694;2023-04-03T10:37:26;103006.69;;;8.01;42.49
77147;BME280;66121;52.584;9.694;2023-04-03T10:40:24;103007.34;;;9.48;41.64
77147;BME280;66121;52.584;9.694;2023-04-03T10:43:10;102999.81;;;9.70;40.23
77147;BME280;66121;52.584;9.694;2023-04-03T10:48:16;103001.66;;;8.74;38.06
77147;BME280;66121;52.584;9.694;2023-04-03T10:56:38;102982.00;;;9.94;39.63
77147;BME280;66121;52.584;9.694;2023-04-03T10:59:37;102973.53;;;9.64;38.75
77147;BME280;66121;52.584;9.694;2023-04-03T11:04:36;102981.22;;;10.53;37.17
77147;BME280;66121;52.584;9.694;2023-04-03T11:07:38;102973.72;;;9.85;38.03
77147;BME280;66121;52.584;9.694;2023-04-03T11:10:11;102972.78;;;10.41;36.83
77147;BME280;66121;52.584;9.694;2023-04-03T11:12:44;102967.28;;;10.15;36.96
77147;BME280;66121;52.584;9.694;2023-04-03T11:15:15;102978.00;;;9.43;39.06
77147;BME280;66121;52.584;9.694;2023-04-03T11:17:48;102984.78;;;8.67;43.03
77147;BME280;66121;52.584;9.694;2023-04-03T11:23:05;102965.28;;;9.17;45.31
77147;BME280;66121;52.584;9.694;2023-04-03T11:25:34;102962.41;;;8.91;41.28
77147;BME280;66121;52.584;9.694;2023-04-03T11:28:02;102961.03;;;8.27;43.22
77147;BME280;66121;52.584;9.694;2023-04-03T11:30:51;102953.28;;;7.93;41.24
77147;BME280;66121;52.584;9.694;2023-04-03T11:36:02;102965.28;;;7.21;44.39
77147;BME280;66121;52.584;9.694;2023-04-03T11:38:33;102964.25;;;7.93;46.64
77147;BME280;66121;52.584;9.694;2023-04-03T11:41:02;102957.22;;;9.29;42.27
77147;BME280;66121;52.584;9.694;2023-04-03T11:43:30;102945.41;;;8.36;42.45
77147;BME280;66121;52.584;9.694;2023-04-03T11:46:01;102949.78;;;8.01;42.59
77147;BME280;66121;52.584;9.694;2023-04-03T11:51:37;102956.63;;;7.13;42.44
77147;BME280;66121;52.584;9.694;2023-04-03T11:53:46;102951.34;;;7.17;42.83
77147;BME280;66121;52.584;9.694;2023-04-03T12:01:57;102936.25;;;9.11;40.95
77147;BME280;66121;52.584;9.694;2023-04-03T12:04:25;102944.13;;;8.95;38.40
77147;BME280;66121;52.584;9.694;2023-04-03T12:06:58;102942.38;;;9.47;41.10
77147;BME280;66121;52.584;9.694;2023-04-03T12:09:54;102943.88;;;10.64;40.79
77147;BME280;66121;52.584;9.694;2023-04-03T12:14:49;102932.25;;;10.24;35.33
77147;BME280;66121;52.584;9.694;2023-04-03T12:17:25;102929.78;;;9.71;39.32
77147;BME280;66121;52.584;9.694;2023-04-03T12:19:52;102936.06;;;10.66;38.56
77147;BME280;66121;52.584;9.694;2023-04-03T12:22:19;102935.59;;;9.61;37.37
77147;BME280;66121;52.584;9.694;2023-04-03T12:24:52;102924.06;;;9.51;37.92
77147;BME280;66121;52.584;9.694;2023-04-03T12:27:23;102915.47;;;8.96;38.82
77147;BME280;66121;52.584;9.694;2023-04-03T12:38:58;102916.03;;;9.24;38.77
77147;BME280;66121;52.584;9.694;2023-04-03T12:46:44;102909.50;;;9.93;43.37
77147;BME280;66121;52.584;9.694;2023-04-03T12:51:54;102904.47;;;10.29;38.50
77147;BME280;66121;52.584;9.694;2023-04-03T12:54:23;102899.75;;;10.30;42.22
77147;BME280;66121;52.584;9.694;2023-04-03T12:56:51;102895.81;;;10.94;41.01
77147;BME280;66121;52.584;9.694;2023-04-03T12:59:20;102901.84;;;10.33;36.25
77147;BME280;66121;52.584;9.694;2023-04-03T13:02:00;102894.53;;;10.54;36.12
77147;BME280;66121;52.584;9.694;2023-04-03T13:04:27;102885.34;;;10.71;35.33
77147;BME280;66121;52.584;9.694;2023-04-03T13:06:53;102874.09;;;10.47;36.92
77147;BME280;66121;52.584;9.694;2023-04-03T13:11:49;102868.28;;;10.05;36.90
77147;BME280;66121;52.584;9.694;2023-04-03T13:14:23;102882.19;;;10.43;36.58
77147;BME280;66121;52.584;9.694;2023-04-03T13:17:15;102873.16;;;10.08;38.15
77147;BME280;66121;52.584;9.694;2023-04-03T13:19:41;102876.41;;;9.67;42.17
77147;BME280;66121;52.584;9.694;2023-04-03T13:24:44;102875.75;;;9.62;41.83
77147;BME280;66121;52.584;9.694;2023-04-03T13:27:12;102866.13;;;9.25;41.87
77147;BME280;66121;52.584;9.694;2023-04-03T13:29:38;102874.38;;;8.69;39.35
77147;BME280;66121;52.584;9.694;2023-04-03T13:32:05;102868.13;;;8.85;44.53
77147;BME280;66121;52.584;9.694;2023-04-03T13:34:41;102866.53;;;8.93;44.05
77147;BME280;66121;52.584;9.694;2023-04-03T13:37:11;102872.22;;;8.96;40.44
77147;BME280;66121;52.584;9.694;2023-04-03T13:39:44;102864.34;;;9.12;42.38
77147;BME280;66121;52.584;9.694;2023-04-03T13:42:23;102853.63;;;9.02;43.13
77147;BME280;66121;52.584;9.694;2023-04-03T13:44:49;102854.91;;;9.04;41.55
77147;BME280;66121;52.584;9.694;2023-04-03T13:47:38;102861.06;;;8.31;40.16
77147;BME280;66121;52.584;9.694;2023-04-03T13:50:15;102852.63;;;8.06;42.75
77147;BME280;66121;52.584;9.694;2023-04-03T13:53:02;102855.25;;;8.11;43.22
77147;BME280;66121;52.584;9.694;2023-04-03T13:55:33;102857.16;;;8.94;42.30
77147;BME280;66121;52.584;9.694;2023-04-03T13:58:21;102848.03;;;9.76;38.71
77147;BME280;66121;52.584;9.694;2023-04-03T14:00:50;102843.81;;;9.69;36.69
77147;BME280;66121;52.584;9.694;2023-04-03T14:03:33;102845.44;;;9.62;36.80
77147;BME280;66121;52.584;9.694;2023-04-03T14:05:59;102844.25;;;10.23;39.68
77147;BME280;66121;52.584;9.694;2023-04-03T14:08:26;102838.44;;;11.00;38.07
77147;BME280;66121;52.584;9.694;2023-04-03T14:10:52;102824.94;;;11.90;36.80
77147;BME280;66121;52.584;9.694;2023-04-03T14:13:19;102831.22;;;11.08;33.74
77147;BME280;66121;52.584;9.694;2023-04-03T14:15:47;102824.13;;;10.31;35.52
77147;BME280;66121;52.584;9.694;2023-04-03T14:18:16;102824.31;;;9.15;40.02
77147;BME280;66121;52.584;9.694;2023-04-03T14:20:43;102816.34;;;8.26;38.49
77147;BME280;66121;52.584;9.694;2023-04-03T14:23:09;102823.34;;;9.19;38.36
77147;BME280;66121;52.584;9.694;2023-04-03T14:25:35;102806.00;;;9.87;36.51
77147;BME280;66121;52.584;9.694;2023-04-03T14:28:01;102826.72;;;10.27;35.31
77147;BME280;66121;52.584;9.694;2023-04-03T14:30:32;102812.22;;;9.67;37.29
77147;BME280;66121;52.584;9.694;2023-04-03T14:32:58;102822.41;;;9.49;38.65